Terminal Aerodrome Forecast
Issued by NWS Shreveport, LA

Home | Current Version | Previous Version | Text Only | Print | Product List | Glossary On
Versions: 1 2 3 4 5 6 7 8 9 10 11 12 13 14 15
000
FTUS44 KSHV 241720
TAFELD
TAF
KELD 241720Z 2418/2518 18005KT P6SM SCT035
     FM242100 17005KT P6SM SCT050
     FM250100 VRB03KT P6SM FEW050
      TEMPO 2510/2513 5SM BR
     FM251300 VRB03KT P6SM SCT250
     FM251500 VRB04KT P6SM SCT025 BKN250=

USA.gov is the U.S. government's official web portal to all federal, state and local government web resources and services.